Aeroporto :
LOGIN :

Iscrizione | Disclaimer

   EN    FR    IT 

 










Sommario :    VFR   VFR Marginale   IFR   IFR Intensivo   IFR Molto Intensivo
Visibilità : 
Base nubi : 
>= 8 km
>= 3000ft
5 / 8 km
1000 / 3000 ft
1500m / 5 km
500 / 1000 ft
800 / 1500m
200 / 500 ft
< 800m
< 200 ft
Simboli :   Temporali  Nebbia  Neve Forte  Precipitazioni Forti  Vento > 20 kt
SIGMETs :   Varie  Temporali  Ghiacco  Turbolenza  Onda orograficha  Ceneri Vulcaniche







- Altitudine del aeroporto : 814 ft
- Codice IATA : TLM


DAON - Zenata - Tlemcen

ULTIMO METAR :
  • 222030Z 04008KT 9999 SCT026 11/07 Q1024

METARs OBSOLETI :
  • 222000Z 04008KT 9999 SCT026 SCT100 12/08 Q1024
  • 221930Z 04008KT 9999 SCT026 SCT100 13/08 Q1023
  • 221900Z 04009KT 9999 SCT026 SCT100 13/08 Q1023
  • 221830Z 04005KT 9999 SCT026 SCT100 14/07 Q1023
  • 221800Z 04008KT 9999 SCT026 SCT100 15/07 Q1023

TAF TAF DAON
Valido dal 22 a 18 ore il 23 a 18 ore UTC


221700Z 2218/2318 02010KT 9999 SCT026
BECMG 2219/2222 VRB02KT
BECMG 2309/2312 36008KT CAVOK
Nessun NOTAM noto per questo aeroporto.



MetMap, La meteo Aeronautica in un colpo d'occhio ! - Copyright ORBIFLY Dicembre 2007 - Disclaimer

ORBIFLY MET'MAP TEAM :

Programmazione e sviluppo : Alexandra Zaïnal
Concezione e sviluppo : Baudouin d'Aumeries
Co-Programmazione e sviluppo : Marc-Olivier Méhu
Supporto tecnico e logistico : Manuel Goepfert
Aiuto per la traduzione : Arnaldo La Scala

Contatto : metmap@orbifly.com




FONTI E CREDITI :

   NOAA